sensor_id;sensor_type;location;lat;lon;timestamp;P1;durP1;ratioP1;P2;durP2;ratioP2
71104;SDS011;58760;48.716;8.962;2023-03-12T00:00:39;11.68;;;4.55;;
71104;SDS011;58760;48.716;8.962;2023-03-12T00:03:05;9.90;;;4.75;;
71104;SDS011;58760;48.716;8.962;2023-03-12T00:05:31;11.25;;;4.45;;
71104;SDS011;58760;48.716;8.962;2023-03-12T00:07:56;12.27;;;4.03;;
71104;SDS011;58760;48.716;8.962;2023-03-12T00:10:24;12.00;;;4.85;;
71104;SDS011;58760;48.716;8.962;2023-03-12T00:12:50;12.05;;;4.75;;
71104;SDS011;58760;48.716;8.962;2023-03-12T00:15:16;11.23;;;4.82;;
71104;SDS011;58760;48.716;8.962;2023-03-12T00:17:42;10.23;;;4.57;;
71104;SDS011;58760;48.716;8.962;2023-03-12T00:20:08;11.25;;;4.47;;
71104;SDS011;58760;48.716;8.962;2023-03-12T00:22:34;12.27;;;4.10;;
71104;SDS011;58760;48.716;8.962;2023-03-12T00:24:59;12.88;;;5.22;;
71104;SDS011;58760;48.716;8.962;2023-03-12T00:27:24;12.48;;;4.55;;
71104;SDS011;58760;48.716;8.962;2023-03-12T00:29:50;12.05;;;3.83;;
71104;SDS011;58760;48.716;8.962;2023-03-12T00:32:16;12.18;;;4.68;;
71104;SDS011;58760;48.716;8.962;2023-03-12T00:34:41;14.25;;;5.03;;
71104;SDS011;58760;48.716;8.962;2023-03-12T00:37:07;11.05;;;4.97;;
71104;SDS011;58760;48.716;8.962;2023-03-12T00:39:33;10.35;;;4.70;;
71104;SDS011;58760;48.716;8.962;2023-03-12T00:41:59;10.50;;;4.43;;
71104;SDS011;58760;48.716;8.962;2023-03-12T00:44:24;12.48;;;5.28;;
71104;SDS011;58760;48.716;8.962;2023-03-12T00:46:50;13.57;;;5.28;;
71104;SDS011;58760;48.716;8.962;2023-03-12T00:49:15;14.18;;;5.13;;
71104;SDS011;58760;48.716;8.962;2023-03-12T00:51:41;12.73;;;5.13;;
71104;SDS011;58760;48.716;8.962;2023-03-12T00:54:06;11.43;;;4.80;;
71104;SDS011;58760;48.716;8.962;2023-03-12T00:56:31;13.10;;;4.50;;
71104;SDS011;58760;48.716;8.962;2023-03-12T00:58:57;13.98;;;4.30;;
71104;SDS011;58760;48.716;8.962;2023-03-12T01:01:22;10.05;;;4.63;;
71104;SDS011;58760;48.716;8.962;2023-03-12T01:03:48;13.95;;;4.90;;
71104;SDS011;58760;48.716;8.962;2023-03-12T01:06:16;10.27;;;4.53;;
71104;SDS011;58760;48.716;8.962;2023-03-12T01:08:42;14.43;;;3.92;;
71104;SDS011;58760;48.716;8.962;2023-03-12T01:11:11;10.35;;;4.28;;
71104;SDS011;58760;48.716;8.962;2023-03-12T01:13:37;10.68;;;4.10;;
71104;SDS011;58760;48.716;8.962;2023-03-12T01:16:03;10.10;;;4.20;;
71104;SDS011;58760;48.716;8.962;2023-03-12T01:18:29;10.82;;;3.85;;
71104;SDS011;58760;48.716;8.962;2023-03-12T01:20:54;9.52;;;4.45;;
71104;SDS011;58760;48.716;8.962;2023-03-12T01:23:19;9.25;;;3.75;;
71104;SDS011;58760;48.716;8.962;2023-03-12T01:25:45;13.55;;;3.83;;
71104;SDS011;58760;48.716;8.962;2023-03-12T01:28:11;9.35;;;4.07;;
71104;SDS011;58760;48.716;8.962;2023-03-12T01:30:36;10.45;;;3.85;;
71104;SDS011;58760;48.716;8.962;2023-03-12T01:33:02;10.20;;;4.00;;
71104;SDS011;58760;48.716;8.962;2023-03-12T01:35:27;9.43;;;3.80;;
71104;SDS011;58760;48.716;8.962;2023-03-12T01:37:53;11.50;;;4.30;;
71104;SDS011;58760;48.716;8.962;2023-03-12T01:40:20;10.65;;;3.95;;
71104;SDS011;58760;48.716;8.962;2023-03-12T01:42:53;9.13;;;3.67;;
71104;SDS011;58760;48.716;8.962;2023-03-12T01:48:22;8.85;;;3.13;;
71104;SDS011;58760;48.716;8.962;2023-03-12T01:50:48;8.52;;;3.47;;
71104;SDS011;58760;48.716;8.962;2023-03-12T01:53:14;12.52;;;3.55;;
71104;SDS011;58760;48.716;8.962;2023-03-12T01:55:40;9.88;;;3.30;;
71104;SDS011;58760;48.716;8.962;2023-03-12T01:58:06;8.65;;;2.90;;
71104;SDS011;58760;48.716;8.962;2023-03-12T02:00:32;13.15;;;3.47;;
71104;SDS011;58760;48.716;8.962;2023-03-12T02:02:58;14.25;;;3.90;;
71104;SDS011;58760;48.716;8.962;2023-03-12T02:08:24;8.25;;;3.30;;
71104;SDS011;58760;48.716;8.962;2023-03-12T02:10:49;8.23;;;3.08;;
71104;SDS011;58760;48.716;8.962;2023-03-12T02:13:15;11.77;;;3.42;;
71104;SDS011;58760;48.716;8.962;2023-03-12T02:15:41;10.48;;;3.20;;
71104;SDS011;58760;48.716;8.962;2023-03-12T02:18:07;10.60;;;3.85;;
71104;SDS011;58760;48.716;8.962;2023-03-12T02:20:38;10.98;;;3.35;;
71104;SDS011;58760;48.716;8.962;2023-03-12T02:23:09;11.00;;;3.70;;
71104;SDS011;58760;48.716;8.962;2023-03-12T02:25:43;9.27;;;3.42;;
71104;SDS011;58760;48.716;8.962;2023-03-12T02:28:12;10.40;;;3.60;;
71104;SDS011;58760;48.716;8.962;2023-03-12T02:30:41;9.43;;;3.17;;
71104;SDS011;58760;48.716;8.962;2023-03-12T02:33:13;10.07;;;3.85;;
71104;SDS011;58760;48.716;8.962;2023-03-12T02:35:41;7.72;;;3.22;;
71104;SDS011;58760;48.716;8.962;2023-03-12T02:40:53;6.97;;;3.08;;
71104;SDS011;58760;48.716;8.962;2023-03-12T02:43:22;11.50;;;3.42;;
71104;SDS011;58760;48.716;8.962;2023-03-12T02:45:47;8.35;;;3.30;;
71104;SDS011;58760;48.716;8.962;2023-03-12T02:48:13;8.30;;;3.45;;
71104;SDS011;58760;48.716;8.962;2023-03-12T02:50:38;7.78;;;3.22;;
71104;SDS011;58760;48.716;8.962;2023-03-12T02:53:04;8.55;;;2.90;;
71104;SDS011;58760;48.716;8.962;2023-03-12T02:55:29;8.73;;;3.17;;
71104;SDS011;58760;48.716;8.962;2023-03-12T02:57:54;9.25;;;3.10;;
71104;SDS011;58760;48.716;8.962;2023-03-12T03:00:20;11.75;;;3.47;;
71104;SDS011;58760;48.716;8.962;2023-03-12T03:02:45;10.35;;;3.35;;
71104;SDS011;58760;48.716;8.962;2023-03-12T03:05:11;9.18;;;3.08;;
71104;SDS011;58760;48.716;8.962;2023-03-12T03:07:37;11.68;;;3.15;;
71104;SDS011;58760;48.716;8.962;2023-03-12T03:10:03;7.88;;;3.13;;
71104;SDS011;58760;48.716;8.962;2023-03-12T03:12:29;8.57;;;3.58;;
71104;SDS011;58760;48.716;8.962;2023-03-12T03:14:55;9.68;;;3.45;;
71104;SDS011;58760;48.716;8.962;2023-03-12T03:17:21;9.15;;;3.05;;
71104;SDS011;58760;48.716;8.962;2023-03-12T03:22:13;9.38;;;2.95;;
71104;SDS011;58760;48.716;8.962;2023-03-12T03:24:39;9.18;;;3.38;;
71104;SDS011;58760;48.716;8.962;2023-03-12T03:27:04;9.05;;;3.28;;
71104;SDS011;58760;48.716;8.962;2023-03-12T03:29:30;8.43;;;2.95;;
71104;SDS011;58760;48.716;8.962;2023-03-12T03:31:55;10.13;;;2.83;;
71104;SDS011;58760;48.716;8.962;2023-03-12T03:34:20;9.95;;;3.40;;
71104;SDS011;58760;48.716;8.962;2023-03-12T03:36:46;8.63;;;3.38;;
71104;SDS011;58760;48.716;8.962;2023-03-12T03:39:11;10.45;;;3.38;;
71104;SDS011;58760;48.716;8.962;2023-03-12T03:41:36;8.63;;;3.10;;
71104;SDS011;58760;48.716;8.962;2023-03-12T03:44:02;7.75;;;2.72;;
71104;SDS011;58760;48.716;8.962;2023-03-12T03:46:29;11.43;;;3.17;;
71104;SDS011;58760;48.716;8.962;2023-03-12T03:48:55;9.40;;;3.45;;
71104;SDS011;58760;48.716;8.962;2023-03-12T03:51:21;8.43;;;3.22;;
71104;SDS011;58760;48.716;8.962;2023-03-12T03:53:47;6.82;;;3.00;;
71104;SDS011;58760;48.716;8.962;2023-03-12T03:56:13;7.25;;;3.00;;
71104;SDS011;58760;48.716;8.962;2023-03-12T03:58:40;10.82;;;3.85;;
71104;SDS011;58760;48.716;8.962;2023-03-12T04:01:05;7.95;;;3.05;;
71104;SDS011;58760;48.716;8.962;2023-03-12T04:03:31;9.77;;;3.90;;
71104;SDS011;58760;48.716;8.962;2023-03-12T04:05:58;9.93;;;4.00;;
71104;SDS011;58760;48.716;8.962;2023-03-12T04:08:24;9.60;;;3.38;;
71104;SDS011;58760;48.716;8.962;2023-03-12T04:10:50;7.50;;;3.47;;
71104;SDS011;58760;48.716;8.962;2023-03-12T04:13:16;9.27;;;3.70;;
71104;SDS011;58760;48.716;8.962;2023-03-12T04:15:45;9.30;;;3.60;;
71104;SDS011;58760;48.716;8.962;2023-03-12T04:18:13;9.27;;;3.70;;
71104;SDS011;58760;48.716;8.962;2023-03-12T04:20:39;9.23;;;3.70;;
71104;SDS011;58760;48.716;8.962;2023-03-12T04:23:04;8.88;;;3.05;;
71104;SDS011;58760;48.716;8.962;2023-03-12T04:25:29;12.32;;;3.15;;
71104;SDS011;58760;48.716;8.962;2023-03-12T04:27:55;11.52;;;3.22;;
71104;SDS011;58760;48.716;8.962;2023-03-12T04:30:20;7.07;;;3.10;;
71104;SDS011;58760;48.716;8.962;2023-03-12T04:32:45;11.02;;;3.47;;
71104;SDS011;58760;48.716;8.962;2023-03-12T04:35:11;11.63;;;4.05;;
71104;SDS011;58760;48.716;8.962;2023-03-12T04:37:36;8.35;;;3.53;;
71104;SDS011;58760;48.716;8.962;2023-03-12T04:40:02;9.23;;;3.30;;
71104;SDS011;58760;48.716;8.962;2023-03-12T04:42:32;10.20;;;3.25;;
71104;SDS011;58760;48.716;8.962;2023-03-12T04:44:58;7.65;;;3.60;;
71104;SDS011;58760;48.716;8.962;2023-03-12T04:47:24;8.18;;;3.35;;
71104;SDS011;58760;48.716;8.962;2023-03-12T04:49:49;9.35;;;3.42;;
71104;SDS011;58760;48.716;8.962;2023-03-12T04:52:14;8.02;;;3.22;;
71104;SDS011;58760;48.716;8.962;2023-03-12T04:54:41;9.32;;;3.05;;
71104;SDS011;58760;48.716;8.962;2023-03-12T04:57:07;8.50;;;3.20;;
71104;SDS011;58760;48.716;8.962;2023-03-12T04:59:32;9.98;;;3.33;;
71104;SDS011;58760;48.716;8.962;2023-03-12T05:01:58;7.88;;;3.03;;
71104;SDS011;58760;48.716;8.962;2023-03-12T05:04:23;7.05;;;3.33;;
71104;SDS011;58760;48.716;8.962;2023-03-12T05:06:49;8.70;;;3.30;;
71104;SDS011;58760;48.716;8.962;2023-03-12T05:09:14;8.20;;;3.30;;
71104;SDS011;58760;48.716;8.962;2023-03-12T05:11:39;9.77;;;3.42;;
71104;SDS011;58760;48.716;8.962;2023-03-12T05:14:05;8.65;;;3.50;;
71104;SDS011;58760;48.716;8.962;2023-03-12T05:16:30;10.32;;;3.50;;
71104;SDS011;58760;48.716;8.962;2023-03-12T05:18:55;7.88;;;3.10;;
71104;SDS011;58760;48.716;8.962;2023-03-12T05:21:21;8.07;;;3.53;;
71104;SDS011;58760;48.716;8.962;2023-03-12T05:23:46;7.47;;;3.35;;
71104;SDS011;58760;48.716;8.962;2023-03-12T05:26:19;11.80;;;3.28;;
71104;SDS011;58760;48.716;8.962;2023-03-12T05:28:47;9.00;;;3.03;;
71104;SDS011;58760;48.716;8.962;2023-03-12T05:31:13;7.45;;;3.15;;
71104;SDS011;58760;48.716;8.962;2023-03-12T05:33:39;7.50;;;3.15;;
71104;SDS011;58760;48.716;8.962;2023-03-12T05:36:04;8.50;;;2.90;;
71104;SDS011;58760;48.716;8.962;2023-03-12T05:38:30;7.72;;;3.10;;
71104;SDS011;58760;48.716;8.962;2023-03-12T05:40:56;9.45;;;3.10;;
71104;SDS011;58760;48.716;8.962;2023-03-12T05:43:23;9.98;;;3.55;;
71104;SDS011;58760;48.716;8.962;2023-03-12T05:45:50;10.18;;;3.53;;
71104;SDS011;58760;48.716;8.962;2023-03-12T05:48:16;10.70;;;3.53;;
71104;SDS011;58760;48.716;8.962;2023-03-12T05:50:41;9.57;;;3.50;;
71104;SDS011;58760;48.716;8.962;2023-03-12T05:53:07;8.43;;;3.80;;
71104;SDS011;58760;48.716;8.962;2023-03-12T05:55:34;7.80;;;3.40;;
71104;SDS011;58760;48.716;8.962;2023-03-12T05:58:00;8.00;;;3.20;;
71104;SDS011;58760;48.716;8.962;2023-03-12T06:00:26;9.55;;;3.67;;
71104;SDS011;58760;48.716;8.962;2023-03-12T06:02:51;8.43;;;3.38;;
71104;SDS011;58760;48.716;8.962;2023-03-12T06:05:17;7.45;;;3.10;;
71104;SDS011;58760;48.716;8.962;2023-03-12T06:07:42;8.48;;;3.40;;
71104;SDS011;58760;48.716;8.962;2023-03-12T06:10:08;8.75;;;3.05;;
71104;SDS011;58760;48.716;8.962;2023-03-12T06:12:34;9.75;;;3.40;;
71104;SDS011;58760;48.716;8.962;2023-03-12T06:14:59;10.23;;;3.38;;
71104;SDS011;58760;48.716;8.962;2023-03-12T06:17:24;8.82;;;2.95;;
71104;SDS011;58760;48.716;8.962;2023-03-12T06:19:50;9.07;;;3.22;;
71104;SDS011;58760;48.716;8.962;2023-03-12T06:22:17;8.75;;;3.13;;
71104;SDS011;58760;48.716;8.962;2023-03-12T06:24:42;8.77;;;3.30;;
71104;SDS011;58760;48.716;8.962;2023-03-12T06:27:11;6.10;;;2.67;;
71104;SDS011;58760;48.716;8.962;2023-03-12T06:29:37;9.45;;;3.50;;
71104;SDS011;58760;48.716;8.962;2023-03-12T06:32:02;10.85;;;3.47;;
71104;SDS011;58760;48.716;8.962;2023-03-12T06:34:27;9.23;;;3.25;;
71104;SDS011;58760;48.716;8.962;2023-03-12T06:36:53;11.20;;;3.63;;
71104;SDS011;58760;48.716;8.962;2023-03-12T06:39:18;9.20;;;3.50;;
71104;SDS011;58760;48.716;8.962;2023-03-12T06:41:43;9.13;;;3.50;;
71104;SDS011;58760;48.716;8.962;2023-03-12T06:44:09;9.00;;;3.58;;
71104;SDS011;58760;48.716;8.962;2023-03-12T06:46:34;8.00;;;3.30;;
71104;SDS011;58760;48.716;8.962;2023-03-12T06:49:00;8.07;;;3.55;;
71104;SDS011;58760;48.716;8.962;2023-03-12T06:51:26;9.00;;;3.30;;
71104;SDS011;58760;48.716;8.962;2023-03-12T06:53:51;7.75;;;3.30;;
71104;SDS011;58760;48.716;8.962;2023-03-12T06:56:17;8.40;;;3.38;;
71104;SDS011;58760;48.716;8.962;2023-03-12T06:58:42;9.57;;;3.40;;
71104;SDS011;58760;48.716;8.962;2023-03-12T07:01:07;7.95;;;3.45;;
71104;SDS011;58760;48.716;8.962;2023-03-12T07:03:33;8.43;;;3.60;;
71104;SDS011;58760;48.716;8.962;2023-03-12T07:05:58;9.35;;;3.35;;
71104;SDS011;58760;48.716;8.962;2023-03-12T07:08:24;10.15;;;3.50;;
71104;SDS011;58760;48.716;8.962;2023-03-12T07:10:50;9.02;;;3.13;;
71104;SDS011;58760;48.716;8.962;2023-03-12T07:13:16;8.88;;;3.33;;
71104;SDS011;58760;48.716;8.962;2023-03-12T07:15:41;7.03;;;2.90;;
71104;SDS011;58760;48.716;8.962;2023-03-12T07:18:08;9.20;;;3.60;;
71104;SDS011;58760;48.716;8.962;2023-03-12T07:20:35;8.25;;;3.25;;
71104;SDS011;58760;48.716;8.962;2023-03-12T07:23:02;8.95;;;3.20;;
71104;SDS011;58760;48.716;8.962;2023-03-12T07:25:28;8.30;;;2.90;;
71104;SDS011;58760;48.716;8.962;2023-03-12T07:27:54;9.77;;;3.80;;
71104;SDS011;58760;48.716;8.962;2023-03-12T07:30:19;7.75;;;3.40;;
71104;SDS011;58760;48.716;8.962;2023-03-12T07:32:45;8.52;;;3.28;;
71104;SDS011;58760;48.716;8.962;2023-03-12T07:35:10;10.93;;;3.72;;
71104;SDS011;58760;48.716;8.962;2023-03-12T07:37:36;9.88;;;3.67;;
71104;SDS011;58760;48.716;8.962;2023-03-12T07:40:01;8.52;;;3.47;;
71104;SDS011;58760;48.716;8.962;2023-03-12T07:42:31;8.40;;;4.00;;
71104;SDS011;58760;48.716;8.962;2023-03-12T07:44:56;11.48;;;4.15;;
71104;SDS011;58760;48.716;8.962;2023-03-12T07:47:22;8.75;;;4.18;;
71104;SDS011;58760;48.716;8.962;2023-03-12T07:49:47;11.77;;;4.68;;
71104;SDS011;58760;48.716;8.962;2023-03-12T07:52:13;8.80;;;4.47;;
71104;SDS011;58760;48.716;8.962;2023-03-12T07:54:38;10.27;;;4.75;;
71104;SDS011;58760;48.716;8.962;2023-03-12T07:57:04;12.68;;;4.32;;
71104;SDS011;58760;48.716;8.962;2023-03-12T07:59:29;10.82;;;4.65;;
71104;SDS011;58760;48.716;8.962;2023-03-12T08:01:55;9.15;;;4.53;;
71104;SDS011;58760;48.716;8.962;2023-03-12T08:04:20;10.65;;;4.15;;
71104;SDS011;58760;48.716;8.962;2023-03-12T08:06:45;11.45;;;5.00;;
71104;SDS011;58760;48.716;8.962;2023-03-12T08:09:11;15.95;;;5.57;;
71104;SDS011;58760;48.716;8.962;2023-03-12T08:11:36;9.88;;;4.63;;
71104;SDS011;58760;48.716;8.962;2023-03-12T08:14:04;12.35;;;4.95;;
71104;SDS011;58760;48.716;8.962;2023-03-12T08:16:30;9.27;;;5.07;;
71104;SDS011;58760;48.716;8.962;2023-03-12T08:18:55;13.82;;;5.38;;
71104;SDS011;58760;48.716;8.962;2023-03-12T08:21:21;9.80;;;5.10;;
71104;SDS011;58760;48.716;8.962;2023-03-12T08:23:47;13.55;;;6.00;;
71104;SDS011;58760;48.716;8.962;2023-03-12T08:26:12;13.20;;;5.40;;
71104;SDS011;58760;48.716;8.962;2023-03-12T08:28:38;10.30;;;5.75;;
71104;SDS011;58760;48.716;8.962;2023-03-12T08:31:03;13.68;;;5.75;;
71104;SDS011;58760;48.716;8.962;2023-03-12T08:33:29;12.60;;;6.35;;
71104;SDS011;58760;48.716;8.962;2023-03-12T08:35:55;12.20;;;6.03;;
71104;SDS011;58760;48.716;8.962;2023-03-12T08:38:20;14.35;;;6.97;;
71104;SDS011;58760;48.716;8.962;2023-03-12T08:40:46;12.98;;;7.07;;
71104;SDS011;58760;48.716;8.962;2023-03-12T08:43:11;13.35;;;6.85;;
71104;SDS011;58760;48.716;8.962;2023-03-12T08:45:37;13.80;;;6.85;;
71104;SDS011;58760;48.716;8.962;2023-03-12T08:48:05;11.98;;;6.60;;
71104;SDS011;58760;48.716;8.962;2023-03-12T08:50:31;13.15;;;7.60;;
71104;SDS011;58760;48.716;8.962;2023-03-12T08:52:57;11.93;;;6.65;;
71104;SDS011;58760;48.716;8.962;2023-03-12T08:55:24;13.80;;;6.88;;
71104;SDS011;58760;48.716;8.962;2023-03-12T08:57:51;13.32;;;7.22;;
71104;SDS011;58760;48.716;8.962;2023-03-12T09:00:17;15.05;;;7.82;;
71104;SDS011;58760;48.716;8.962;2023-03-12T09:02:43;17.77;;;7.53;;
71104;SDS011;58760;48.716;8.962;2023-03-12T09:05:09;15.02;;;8.23;;
71104;SDS011;58760;48.716;8.962;2023-03-12T09:07:35;13.88;;;7.55;;
71104;SDS011;58760;48.716;8.962;2023-03-12T09:10:01;13.68;;;8.27;;
71104;SDS011;58760;48.716;8.962;2023-03-12T09:12:26;12.85;;;7.55;;
71104;SDS011;58760;48.716;8.962;2023-03-12T09:14:52;15.02;;;7.45;;
71104;SDS011;58760;48.716;8.962;2023-03-12T09:17:17;12.07;;;7.13;;
71104;SDS011;58760;48.716;8.962;2023-03-12T09:19:42;16.50;;;7.60;;
71104;SDS011;58760;48.716;8.962;2023-03-12T09:22:08;13.05;;;7.40;;
71104;SDS011;58760;48.716;8.962;2023-03-12T09:24:33;15.35;;;7.80;;
71104;SDS011;58760;48.716;8.962;2023-03-12T09:26:59;16.80;;;7.53;;
71104;SDS011;58760;48.716;8.962;2023-03-12T09:29:25;15.10;;;7.13;;
71104;SDS011;58760;48.716;8.962;2023-03-12T09:31:51;12.98;;;6.90;;
71104;SDS011;58760;48.716;8.962;2023-03-12T09:34:16;13.63;;;7.25;;
71104;SDS011;58760;48.716;8.962;2023-03-12T09:36:41;12.45;;;6.57;;
71104;SDS011;58760;48.716;8.962;2023-03-12T09:39:07;10.70;;;6.13;;
71104;SDS011;58760;48.716;8.962;2023-03-12T09:41:36;13.13;;;6.60;;
71104;SDS011;58760;48.716;8.962;2023-03-12T09:49:50;9.23;;;4.95;;
71104;SDS011;58760;48.716;8.962;2023-03-12T09:55:13;9.43;;;4.93;;
71104;SDS011;58760;48.716;8.962;2023-03-12T09:57:41;12.02;;;4.72;;
71104;SDS011;58760;48.716;8.962;2023-03-12T10:00:12;8.57;;;4.50;;
71104;SDS011;58760;48.716;8.962;2023-03-12T10:07:56;7.13;;;3.17;;
71104;SDS011;58760;48.716;8.962;2023-03-12T10:13:23;6.90;;;3.28;;
71104;SDS011;58760;48.716;8.962;2023-03-12T10:16:01;7.28;;;3.03;;
71104;SDS011;58760;48.716;8.962;2023-03-12T10:18:53;7.25;;;2.85;;
71104;SDS011;58760;48.716;8.962;2023-03-12T10:21:50;5.15;;;1.90;;
71104;SDS011;58760;48.716;8.962;2023-03-12T10:24:22;5.68;;;2.05;;
71104;SDS011;58760;48.716;8.962;2023-03-12T10:26:58;6.07;;;2.17;;
71104;SDS011;58760;48.716;8.962;2023-03-12T10:29:29;3.78;;;1.70;;
71104;SDS011;58760;48.716;8.962;2023-03-12T10:34:39;3.10;;;1.30;;
71104;SDS011;58760;48.716;8.962;2023-03-12T10:37:19;4.45;;;1.30;;
71104;SDS011;58760;48.716;8.962;2023-03-12T10:39:53;2.58;;;1.23;;
71104;SDS011;58760;48.716;8.962;2023-03-12T10:42:28;2.13;;;1.10;;
71104;SDS011;58760;48.716;8.962;2023-03-12T10:45:09;2.90;;;1.05;;
71104;SDS011;58760;48.716;8.962;2023-03-12T10:47:51;2.53;;;0.90;;
71104;SDS011;58760;48.716;8.962;2023-03-12T10:52:47;3.08;;;1.00;;
71104;SDS011;58760;48.716;8.962;2023-03-12T10:55:21;3.05;;;1.00;;
71104;SDS011;58760;48.716;8.962;2023-03-12T10:57:47;3.05;;;0.88;;
71104;SDS011;58760;48.716;8.962;2023-03-12T11:00:17;4.13;;;1.10;;
71104;SDS011;58760;48.716;8.962;2023-03-12T11:02:43;2.63;;;0.90;;
71104;SDS011;58760;48.716;8.962;2023-03-12T11:05:19;1.98;;;0.65;;
71104;SDS011;58760;48.716;8.962;2023-03-12T11:07:47;1.77;;;0.80;;
71104;SDS011;58760;48.716;8.962;2023-03-12T11:10:15;1.42;;;0.80;;
71104;SDS011;58760;48.716;8.962;2023-03-12T11:12:54;2.63;;;0.90;;
71104;SDS011;58760;48.716;8.962;2023-03-12T11:15:25;1.40;;;0.85;;
71104;SDS011;58760;48.716;8.962;2023-03-12T11:20:45;2.78;;;0.90;;
71104;SDS011;58760;48.716;8.962;2023-03-12T11:23:13;5.00;;;1.02;;
71104;SDS011;58760;48.716;8.962;2023-03-12T11:25:41;2.03;;;0.80;;
71104;SDS011;58760;48.716;8.962;2023-03-12T11:28:06;2.22;;;0.73;;
71104;SDS011;58760;48.716;8.962;2023-03-12T11:30:42;2.90;;;0.80;;
71104;SDS011;58760;48.716;8.962;2023-03-12T11:33:08;5.28;;;0.82;;
71104;SDS011;58760;48.716;8.962;2023-03-12T11:35:44;2.45;;;0.70;;
71104;SDS011;58760;48.716;8.962;2023-03-12T11:38:24;4.00;;;1.00;;
71104;SDS011;58760;48.716;8.962;2023-03-12T11:46:48;5.07;;;0.80;;
71104;SDS011;58760;48.716;8.962;2023-03-12T11:49:25;2.30;;;0.70;;
71104;SDS011;58760;48.716;8.962;2023-03-12T12:03:29;3.78;;;0.80;;
71104;SDS011;58760;48.716;8.962;2023-03-12T12:08:52;4.72;;;0.90;;
71104;SDS011;58760;48.716;8.962;2023-03-12T12:14:19;5.30;;;0.80;;
71104;SDS011;58760;48.716;8.962;2023-03-12T12:17:30;4.85;;;0.90;;
71104;SDS011;58760;48.716;8.962;2023-03-12T12:20:20;5.50;;;1.00;;
71104;SDS011;58760;48.716;8.962;2023-03-12T12:22:50;5.72;;;1.13;;
71104;SDS011;58760;48.716;8.962;2023-03-12T12:30:54;5.40;;;1.10;;
71104;SDS011;58760;48.716;8.962;2023-03-12T12:33:39;3.47;;;1.00;;
71104;SDS011;58760;48.716;8.962;2023-03-12T12:36:23;6.38;;;1.17;;
71104;SDS011;58760;48.716;8.962;2023-03-12T12:38:55;6.00;;;1.30;;
71104;SDS011;58760;48.716;8.962;2023-03-12T12:41:26;6.97;;;1.20;;
71104;SDS011;58760;48.716;8.962;2023-03-12T12:44:00;6.72;;;1.23;;
71104;SDS011;58760;48.716;8.962;2023-03-12T12:49:00;7.18;;;1.13;;
71104;SDS011;58760;48.716;8.962;2023-03-12T12:51:32;3.70;;;1.00;;
71104;SDS011;58760;48.716;8.962;2023-03-12T12:54:08;5.38;;;1.20;;
71104;SDS011;58760;48.716;8.962;2023-03-12T12:56:49;10.55;;;1.33;;
71104;SDS011;58760;48.716;8.962;2023-03-12T13:02:02;6.63;;;1.38;;
71104;SDS011;58760;48.716;8.962;2023-03-12T13:04:37;8.35;;;1.20;;
71104;SDS011;58760;48.716;8.962;2023-03-12T13:09:47;6.35;;;1.00;;
71104;SDS011;58760;48.716;8.962;2023-03-12T13:14:49;5.32;;;0.93;;
71104;SDS011;58760;48.716;8.962;2023-03-12T13:19:47;6.70;;;1.20;;
71104;SDS011;58760;48.716;8.962;2023-03-12T13:25:23;6.28;;;1.38;;
71104;SDS011;58760;48.716;8.962;2023-03-12T13:27:57;5.80;;;1.30;;
71104;SDS011;58760;48.716;8.962;2023-03-12T13:43:15;3.72;;;0.90;;
71104;SDS011;58760;48.716;8.962;2023-03-12T13:48:15;3.30;;;1.00;;
71104;SDS011;58760;48.716;8.962;2023-03-12T13:51:18;3.40;;;0.85;;
71104;SDS011;58760;48.716;8.962;2023-03-12T13:53:40;5.18;;;1.10;;
71104;SDS011;58760;48.716;8.962;2023-03-12T13:56:08;4.57;;;0.90;;
71104;SDS011;58760;48.716;8.962;2023-03-12T13:59:18;5.97;;;1.40;;
71104;SDS011;58760;48.716;8.962;2023-03-12T14:01:28;4.97;;;1.10;;
71104;SDS011;58760;48.716;8.962;2023-03-12T14:04:04;5.00;;;1.02;;
71104;SDS011;58760;48.716;8.962;2023-03-12T14:06:36;3.08;;;0.80;;
71104;SDS011;58760;48.716;8.962;2023-03-12T14:09:27;4.80;;;1.00;;
71104;SDS011;58760;48.716;8.962;2023-03-12T14:12:05;3.40;;;0.90;;
71104;SDS011;58760;48.716;8.962;2023-03-12T14:17:39;3.75;;;0.82;;
71104;SDS011;58760;48.716;8.962;2023-03-12T14:22:36;3.80;;;0.90;;
71104;SDS011;58760;48.716;8.962;2023-03-12T14:28:01;5.45;;;0.70;;
71104;SDS011;58760;48.716;8.962;2023-03-12T14:30:31;5.63;;;0.85;;
71104;SDS011;58760;48.716;8.962;2023-03-12T14:33:04;3.15;;;0.63;;
71104;SDS011;58760;48.716;8.962;2023-03-12T14:35:37;2.33;;;0.70;;
71104;SDS011;58760;48.716;8.962;2023-03-12T14:40:41;4.63;;;0.90;;
71104;SDS011;58760;48.716;8.962;2023-03-12T14:43:23;2.13;;;0.80;;
71104;SDS011;58760;48.716;8.962;2023-03-12T14:45:54;3.33;;;0.75;;
71104;SDS011;58760;48.716;8.962;2023-03-12T14:48:23;3.10;;;0.95;;
71104;SDS011;58760;48.716;8.962;2023-03-12T14:50:52;4.07;;;0.80;;
71104;SDS011;58760;48.716;8.962;2023-03-12T14:53:23;3.25;;;0.93;;
71104;SDS011;58760;48.716;8.962;2023-03-12T14:56:25;4.25;;;1.00;;
71104;SDS011;58760;48.716;8.962;2023-03-12T14:58:58;3.65;;;0.90;;
71104;SDS011;58760;48.716;8.962;2023-03-12T15:01:28;4.18;;;0.90;;
71104;SDS011;58760;48.716;8.962;2023-03-12T15:03:57;4.25;;;1.08;;
71104;SDS011;58760;48.716;8.962;2023-03-12T15:06:29;4.88;;;1.38;;
71104;SDS011;58760;48.716;8.962;2023-03-12T15:08:57;6.60;;;1.17;;
71104;SDS011;58760;48.716;8.962;2023-03-12T15:11:26;7.13;;;1.25;;
71104;SDS011;58760;48.716;8.962;2023-03-12T15:13:53;10.02;;;1.50;;
71104;SDS011;58760;48.716;8.962;2023-03-12T15:16:25;5.60;;;1.30;;
71104;SDS011;58760;48.716;8.962;2023-03-12T15:21:16;6.57;;;1.27;;
71104;SDS011;58760;48.716;8.962;2023-03-12T15:23:43;8.63;;;1.52;;
71104;SDS011;58760;48.716;8.962;2023-03-12T15:26:12;7.95;;;1.25;;
71104;SDS011;58760;48.716;8.962;2023-03-12T15:28:52;7.35;;;1.20;;
71104;SDS011;58760;48.716;8.962;2023-03-12T15:31:40;7.97;;;1.48;;
71104;SDS011;58760;48.716;8.962;2023-03-12T15:34:09;6.20;;;1.33;;
71104;SDS011;58760;48.716;8.962;2023-03-12T15:36:35;8.18;;;1.48;;
71104;SDS011;58760;48.716;8.962;2023-03-12T15:39:19;8.07;;;1.45;;
71104;SDS011;58760;48.716;8.962;2023-03-12T15:42:09;10.80;;;2.90;;
71104;SDS011;58760;48.716;8.962;2023-03-12T15:44:50;9.00;;;1.30;;
71104;SDS011;58760;48.716;8.962;2023-03-12T15:47:28;10.07;;;1.70;;
71104;SDS011;58760;48.716;8.962;2023-03-12T15:50:03;9.57;;;1.30;;
71104;SDS011;58760;48.716;8.962;2023-03-12T15:52:35;7.78;;;1.50;;
71104;SDS011;58760;48.716;8.962;2023-03-12T15:55:17;10.27;;;1.40;;
71104;SDS011;58760;48.716;8.962;2023-03-12T15:57:48;8.48;;;1.55;;
71104;SDS011;58760;48.716;8.962;2023-03-12T16:02:47;12.57;;;1.85;;
71104;SDS011;58760;48.716;8.962;2023-03-12T16:05:15;10.02;;;1.60;;
71104;SDS011;58760;48.716;8.962;2023-03-12T16:07:41;8.13;;;1.52;;
71104;SDS011;58760;48.716;8.962;2023-03-12T16:10:09;7.35;;;1.55;;
71104;SDS011;58760;48.716;8.962;2023-03-12T16:12:38;7.50;;;1.33;;
71104;SDS011;58760;48.716;8.962;2023-03-12T16:15:05;8.88;;;1.48;;
71104;SDS011;58760;48.716;8.962;2023-03-12T16:17:30;12.35;;;1.65;;
71104;SDS011;58760;48.716;8.962;2023-03-12T16:19:56;8.52;;;1.52;;
71104;SDS011;58760;48.716;8.962;2023-03-12T16:22:21;5.78;;;1.58;;
71104;SDS011;58760;48.716;8.962;2023-03-12T16:24:47;9.18;;;1.60;;
71104;SDS011;58760;48.716;8.962;2023-03-12T16:27:13;8.82;;;1.67;;
71104;SDS011;58760;48.716;8.962;2023-03-12T16:29:40;8.57;;;1.65;;
71104;SDS011;58760;48.716;8.962;2023-03-12T16:32:15;8.75;;;1.80;;
71104;SDS011;58760;48.716;8.962;2023-03-12T16:34:42;8.63;;;1.48;;
71104;SDS011;58760;48.716;8.962;2023-03-12T16:37:12;9.27;;;1.55;;
71104;SDS011;58760;48.716;8.962;2023-03-12T16:39:38;11.88;;;1.52;;
71104;SDS011;58760;48.716;8.962;2023-03-12T16:42:04;8.60;;;1.33;;